createdAt,value
2022-09-11T00:02:13.669Z,2.55
2022-09-11T00:04:43.404Z,2.33
2022-09-11T00:07:13.175Z,2.20
2022-09-11T00:09:42.883Z,2.20
2022-09-11T00:12:15.794Z,2.17
2022-09-11T00:14:45.441Z,2.47
2022-09-11T00:17:17.132Z,3.13
2022-09-11T00:19:46.834Z,2.50
2022-09-11T00:22:21.823Z,2.50
2022-09-11T00:24:51.698Z,2.85
2022-09-11T00:27:21.523Z,3.20
2022-09-11T00:29:51.493Z,2.90
2022-09-11T00:32:22.369Z,4.00
2022-09-11T00:34:52.556Z,3.45
2022-09-11T00:37:22.166Z,3.20
2022-09-11T00:39:52.279Z,3.22
2022-09-11T00:42:21.923Z,3.35
2022-09-11T00:44:51.627Z,3.03
2022-09-11T00:47:21.366Z,3.17
2022-09-11T00:49:52.442Z,3.53
2022-09-11T00:52:29.688Z,3.15
2022-09-11T00:55:03.068Z,3.15
2022-09-11T00:57:33.548Z,3.65
2022-09-11T01:00:03.906Z,3.10
2022-09-11T01:02:34.342Z,3.60
2022-09-11T01:05:04.274Z,3.20
2022-09-11T01:07:34.454Z,3.30
2022-09-11T01:10:04.957Z,3.15
2022-09-11T01:12:50.035Z,2.90
2022-09-11T01:15:22.938Z,3.13
2022-09-11T01:17:52.616Z,3.33
2022-09-11T01:20:25.019Z,2.47
2022-09-11T01:23:00.539Z,3.03
2022-09-11T01:25:33.432Z,3.72
2022-09-11T01:28:03.486Z,3.70
2022-09-11T01:30:53.519Z,3.00
2022-09-11T01:33:29.786Z,3.38
2022-09-11T01:36:02.491Z,2.67
2022-09-11T01:38:36.804Z,2.88
2022-09-11T01:41:09.497Z,2.92
2022-09-11T01:43:42.852Z,3.70
2022-09-11T01:46:12.693Z,2.60
2022-09-11T01:48:47.214Z,2.72
2022-09-11T01:51:18.102Z,2.53
2022-09-11T01:53:50.376Z,2.65
2022-09-11T01:56:22.260Z,2.75
2022-09-11T01:58:52.460Z,2.80
2022-09-11T02:01:25.997Z,2.78
2022-09-11T02:04:14.126Z,2.78
2022-09-11T02:06:46.133Z,2.50
2022-09-11T02:09:17.162Z,3.15
2022-09-11T02:11:47.004Z,2.75
2022-09-11T02:14:30.660Z,3.20
2022-09-11T02:17:18.777Z,2.58
2022-09-11T02:19:48.592Z,2.15
2022-09-11T02:22:18.406Z,2.15
2022-09-11T02:24:48.346Z,2.63
2022-09-11T02:27:19.492Z,2.60
2022-09-11T02:29:49.307Z,3.35
2022-09-11T02:32:20.441Z,2.35
2022-09-11T02:34:50.226Z,2.92
2022-09-11T02:37:22.785Z,2.25
2022-09-11T02:39:58.955Z,2.20
2022-09-11T02:42:35.738Z,2.30
2022-09-11T02:45:08.583Z,1.95
2022-09-11T02:47:42.885Z,2.45
2022-09-11T02:50:31.337Z,2.65
2022-09-11T02:53:09.084Z,2.67
2022-09-11T02:55:58.102Z,2.20
2022-09-11T02:58:48.084Z,2.38
2022-09-11T03:01:18.064Z,2.30
2022-09-11T03:03:48.312Z,2.42
2022-09-11T03:06:21.952Z,2.30
2022-09-11T03:08:51.781Z,2.30
2022-09-11T03:11:21.807Z,2.55
2022-09-11T03:13:51.725Z,2.58
2022-09-11T03:16:24.611Z,2.40
2022-09-11T03:18:54.936Z,3.00
2022-09-11T03:21:24.838Z,3.35
2022-09-11T03:23:54.693Z,2.85
2022-09-11T03:26:24.404Z,2.13
2022-09-11T03:28:55.086Z,3.50
2022-09-11T03:31:27.970Z,2.38
2022-09-11T03:33:58.705Z,2.85
2022-09-11T03:36:28.529Z,2.20
2022-09-11T03:38:58.649Z,2.60
2022-09-11T03:41:28.437Z,2.58
2022-09-11T03:43:58.117Z,2.70
2022-09-11T03:46:28.105Z,2.78
2022-09-11T03:49:00.937Z,2.67
2022-09-11T03:51:32.715Z,2.30
2022-09-11T03:54:05.197Z,1.92
2022-09-11T03:56:35.081Z,2.42
2022-09-11T03:59:05.003Z,2.10
2022-09-11T04:01:37.665Z,2.50
2022-09-11T04:04:07.609Z,2.28
2022-09-11T04:06:38.140Z,2.53
2022-09-11T04:09:14.235Z,2.47
2022-09-11T04:11:47.068Z,2.85
2022-09-11T04:14:19.559Z,2.35
2022-09-11T04:16:49.590Z,2.72
2022-09-11T04:19:20.244Z,2.00
2022-09-11T04:21:50.247Z,2.08
2022-09-11T04:24:20.435Z,2.67
2022-09-11T04:26:50.819Z,3.20
2022-09-11T04:29:20.954Z,2.67
2022-09-11T04:31:51.645Z,2.05
2022-09-11T04:34:28.110Z,2.40
2022-09-11T04:37:00.004Z,2.10
2022-09-11T04:39:32.339Z,2.15
2022-09-11T04:42:03.430Z,2.28
2022-09-11T04:44:34.102Z,2.10
2022-09-11T04:47:04.073Z,2.20
2022-09-11T04:49:34.838Z,2.00
2022-09-11T04:52:08.787Z,2.25
2022-09-11T04:54:38.944Z,2.83
2022-09-11T04:57:08.838Z,2.25
2022-09-11T04:59:38.617Z,2.35
2022-09-11T05:02:08.548Z,1.98
2022-09-11T05:04:39.140Z,2.30
2022-09-11T05:07:09.501Z,2.15
2022-09-11T05:09:39.235Z,2.42
2022-09-11T05:12:11.743Z,2.13
2022-09-11T05:14:41.531Z,1.90
2022-09-11T05:17:11.602Z,2.17
2022-09-11T05:19:41.882Z,2.33
2022-09-11T05:22:11.764Z,2.10
2022-09-11T05:24:42.226Z,2.92
2022-09-11T05:27:13.545Z,2.28
2022-09-11T05:29:43.350Z,2.20
2022-09-11T05:32:14.437Z,2.30
2022-09-11T05:34:45.075Z,1.92
2022-09-11T05:37:14.942Z,1.75
2022-09-11T05:39:44.691Z,2.28
2022-09-11T05:42:14.476Z,2.28
2022-09-11T05:44:45.285Z,1.80
2022-09-11T05:47:15.743Z,2.15
2022-09-11T05:49:48.105Z,1.67
2022-09-11T05:52:18.031Z,1.63
2022-09-11T05:54:47.931Z,1.85
2022-09-11T05:57:18.167Z,2.20
2022-09-11T05:59:48.096Z,2.17
2022-09-11T06:02:18.116Z,2.53
2022-09-11T06:04:48.023Z,2.30
2022-09-11T06:07:17.996Z,2.28
2022-09-11T06:09:47.875Z,4.22
2022-09-11T06:12:20.982Z,2.47
2022-09-11T06:14:51.086Z,2.70
2022-09-11T06:17:20.909Z,2.40
2022-09-11T06:19:50.725Z,2.28
2022-09-11T06:22:21.878Z,2.60
2022-09-11T06:24:51.544Z,2.20
2022-09-11T06:27:21.717Z,2.08
2022-09-11T06:29:51.964Z,2.42
2022-09-11T06:32:22.961Z,2.35
2022-09-11T06:34:52.895Z,2.50
2022-09-11T06:37:22.940Z,2.00
2022-09-11T06:39:53.639Z,2.53
2022-09-11T06:42:23.411Z,2.63
2022-09-11T06:44:53.748Z,2.55
2022-09-11T06:47:23.778Z,2.80
2022-09-11T06:49:53.538Z,2.40
2022-09-11T06:52:23.296Z,2.88
2022-09-11T06:54:53.128Z,2.95
2022-09-11T06:57:23.116Z,2.00
2022-09-11T06:59:53.610Z,2.55
2022-09-11T07:02:23.364Z,2.60
2022-09-11T07:04:54.664Z,2.88
2022-09-11T07:07:24.755Z,3.05
2022-09-11T07:09:54.636Z,3.22
2022-09-11T07:12:25.280Z,2.60
2022-09-11T07:14:55.371Z,3.28
2022-09-11T07:17:25.157Z,2.95
2022-09-11T07:19:54.875Z,2.85
2022-09-11T07:22:24.583Z,3.33
2022-09-11T07:24:56.337Z,5.22
2022-09-11T07:27:26.052Z,3.45
2022-09-11T07:29:55.886Z,3.30
2022-09-11T07:32:28.632Z,3.25
2022-09-11T07:34:58.495Z,2.92
2022-09-11T07:37:28.538Z,2.75
2022-09-11T07:39:58.565Z,2.70
2022-09-11T07:42:28.699Z,2.60
2022-09-11T07:44:58.921Z,2.55
2022-09-11T07:47:28.688Z,3.00
2022-09-11T07:49:58.726Z,2.97
2022-09-11T07:52:28.586Z,2.72
2022-09-11T07:54:58.463Z,3.40
2022-09-11T07:57:29.054Z,2.80
2022-09-11T07:59:58.779Z,3.47
2022-09-11T08:02:28.555Z,3.38
2022-09-11T08:04:58.706Z,3.70
2022-09-11T08:07:28.449Z,3.45
2022-09-11T08:10:23.383Z,3.58
2022-09-11T08:12:49.093Z,3.40
2022-09-11T08:15:19.731Z,4.18
2022-09-11T08:17:49.671Z,3.53
2022-09-11T08:20:19.559Z,4.57
2022-09-11T08:22:49.341Z,4.20
2022-09-11T08:25:19.804Z,5.30
2022-09-11T08:27:49.594Z,4.22
2022-09-11T08:30:19.551Z,4.00
2022-09-11T08:32:50.423Z,3.28
2022-09-11T08:35:20.525Z,2.65
2022-09-11T08:37:54.610Z,3.97
2022-09-11T08:40:24.838Z,4.10
2022-09-11T08:42:54.957Z,3.05
2022-09-11T08:45:33.400Z,3.58
2022-09-11T08:48:03.262Z,5.45
2022-09-11T08:50:42.467Z,4.32
2022-09-11T08:53:16.730Z,4.63
2022-09-11T08:55:47.890Z,4.03
2022-09-11T08:58:18.056Z,5.65
2022-09-11T09:00:52.661Z,4.95
2022-09-11T09:03:45.219Z,5.00
2022-09-11T09:06:33.475Z,4.93
2022-09-11T09:09:09.411Z,5.40
2022-09-11T09:11:45.752Z,5.93
2022-09-11T09:14:16.180Z,5.97
2022-09-11T09:16:53.524Z,6.70
2022-09-11T09:19:58.333Z,5.65
2022-09-11T09:22:40.945Z,3.75
2022-09-11T09:25:13.343Z,5.95
2022-09-11T09:27:50.645Z,4.07
2022-09-11T09:30:25.850Z,4.57
2022-09-11T09:32:56.200Z,32.47
2022-09-11T09:35:26.533Z,6.43
2022-09-11T09:37:56.330Z,4.68
2022-09-11T09:40:26.237Z,5.63
2022-09-11T09:43:06.537Z,5.40
2022-09-11T09:45:50.164Z,5.45
2022-09-11T09:48:20.118Z,5.50
2022-09-11T09:50:50.065Z,5.32
2022-09-11T09:53:19.837Z,5.53
2022-09-11T09:55:49.514Z,6.03
2022-09-11T09:58:19.238Z,6.63
2022-09-11T10:00:49.023Z,6.78
2022-09-11T10:03:22.602Z,5.80
2022-09-11T10:05:54.707Z,6.28
2022-09-11T10:08:28.728Z,6.55
2022-09-11T10:11:07.866Z,6.18
2022-09-11T10:13:39.102Z,6.75
2022-09-11T10:16:21.614Z,6.70
2022-09-11T10:18:51.612Z,7.68
2022-09-11T10:21:30.868Z,7.45
2022-09-11T10:24:01.067Z,9.00
2022-09-11T10:26:47.345Z,7.07
2022-09-11T10:29:31.413Z,7.15
2022-09-11T10:32:04.605Z,8.23
2022-09-11T10:34:38.828Z,6.85
2022-09-11T10:37:11.690Z,8.18
2022-09-11T10:39:42.729Z,7.38
2022-09-11T10:42:18.916Z,8.45
2022-09-11T10:44:48.718Z,8.38
2022-09-11T10:47:24.663Z,8.15
2022-09-11T10:50:13.381Z,7.88
2022-09-11T10:53:01.474Z,8.27
2022-09-11T10:55:38.039Z,7.77
2022-09-11T10:58:10.251Z,8.10
2022-09-11T11:00:40.375Z,7.72
2022-09-11T11:03:18.787Z,7.63
2022-09-11T11:05:57.672Z,7.95
2022-09-11T11:08:31.529Z,7.53
2022-09-11T11:11:36.895Z,6.97
2022-09-11T11:14:24.778Z,6.90
2022-09-11T11:17:13.505Z,7.20
2022-09-11T11:19:43.893Z,8.13
2022-09-11T11:22:21.219Z,6.97
2022-09-11T11:25:09.467Z,6.22
2022-09-11T11:27:39.199Z,7.32
2022-09-11T11:30:17.116Z,7.47
2022-09-11T11:33:02.549Z,6.88
2022-09-11T11:35:39.033Z,6.80
2022-09-11T11:38:11.887Z,6.65
2022-09-11T11:40:49.457Z,6.38
2022-09-11T11:43:19.805Z,7.88
2022-09-11T11:46:19.464Z,6.72
2022-09-11T11:48:51.963Z,6.78
2022-09-11T11:51:22.559Z,6.45
2022-09-11T11:54:08.702Z,5.82
2022-09-11T11:56:46.279Z,7.35
2022-09-11T11:59:32.745Z,7.15
2022-09-11T12:02:05.304Z,6.57
2022-09-11T12:04:42.164Z,5.95
2022-09-11T12:07:22.291Z,13.57
2022-09-11T12:09:52.820Z,8.55
2022-09-11T12:12:22.644Z,7.22
2022-09-11T12:14:55.939Z,6.75
2022-09-11T12:17:28.768Z,6.75
2022-09-11T12:20:13.742Z,5.93
2022-09-11T12:22:43.540Z,6.13
2022-09-11T12:25:22.856Z,7.45
2022-09-11T12:27:54.270Z,6.57
2022-09-11T12:30:25.562Z,6.38
2022-09-11T12:32:56.411Z,5.70
2022-09-11T12:35:26.677Z,6.20
2022-09-11T12:38:00.796Z,5.80
2022-09-11T12:40:33.811Z,6.43
2022-09-11T12:43:22.204Z,6.13
2022-09-11T12:45:52.105Z,6.03
2022-09-11T12:48:23.074Z,6.18
2022-09-11T12:51:03.772Z,5.72
2022-09-11T12:53:35.039Z,7.15
2022-09-11T12:56:08.543Z,6.65
2022-09-11T12:58:39.803Z,6.72
2022-09-11T13:01:20.589Z,6.88
2022-09-11T13:03:52.036Z,7.38
2022-09-11T13:06:21.718Z,6.00
2022-09-11T13:08:54.655Z,6.32
2022-09-11T13:11:44.345Z,6.22
2022-09-11T13:14:26.343Z,6.30
2022-09-11T13:16:56.286Z,6.75
2022-09-11T13:19:30.028Z,6.40
2022-09-11T13:21:59.733Z,6.45
2022-09-11T13:24:33.556Z,5.70
2022-09-11T13:27:04.517Z,5.53
2022-09-11T13:29:34.615Z,5.22
2022-09-11T13:32:12.860Z,5.22
2022-09-11T13:34:45.962Z,5.03
2022-09-11T13:37:17.039Z,6.00
2022-09-11T13:39:47.826Z,5.70
2022-09-11T13:42:18.163Z,5.85
2022-09-11T13:44:53.468Z,5.78
2022-09-11T13:47:36.676Z,5.15
2022-09-11T13:50:08.062Z,5.60
2022-09-11T13:52:40.055Z,5.40
2022-09-11T13:55:14.166Z,5.10
2022-09-11T13:57:56.915Z,5.07
2022-09-11T14:00:46.534Z,5.07
2022-09-11T14:03:33.387Z,4.75
2022-09-11T14:06:06.869Z,5.38
2022-09-11T14:08:41.896Z,5.50
2022-09-11T14:11:24.405Z,5.75
2022-09-11T14:13:54.825Z,5.65
2022-09-11T14:16:33.082Z,5.78
2022-09-11T14:19:05.276Z,6.03
2022-09-11T14:21:41.807Z,5.47
2022-09-11T14:24:30.288Z,5.60
2022-09-11T14:27:00.439Z,4.70
2022-09-11T14:29:33.999Z,5.47
2022-09-11T14:32:23.315Z,5.30
2022-09-11T14:34:53.569Z,5.32
2022-09-11T14:37:23.711Z,5.70
2022-09-11T14:39:58.279Z,5.18
2022-09-11T14:42:34.916Z,6.05
2022-09-11T14:45:15.352Z,6.00
2022-09-11T14:47:48.641Z,6.55
2022-09-11T14:50:18.578Z,6.32
2022-09-11T14:52:48.650Z,6.10
2022-09-11T14:55:22.290Z,6.00
2022-09-11T14:57:52.179Z,5.80
2022-09-11T15:00:22.174Z,6.10
2022-09-11T15:02:55.252Z,5.90
2022-09-11T15:05:26.156Z,6.72
2022-09-11T15:08:02.581Z,6.15
2022-09-11T15:10:36.481Z,6.18
2022-09-11T15:13:06.939Z,5.97
2022-09-11T15:15:36.806Z,6.00
2022-09-11T15:18:09.524Z,5.97
2022-09-11T15:20:39.329Z,6.03
2022-09-11T15:23:09.139Z,6.32
2022-09-11T15:25:39.077Z,7.10
2022-09-11T15:28:11.522Z,5.97
2022-09-11T15:30:41.400Z,6.00
2022-09-11T15:33:11.609Z,5.63
2022-09-11T15:35:41.921Z,5.22
2022-09-11T15:38:12.138Z,5.05
2022-09-11T15:40:41.974Z,6.53
2022-09-11T15:43:11.941Z,5.20
2022-09-11T15:45:44.877Z,5.05
2022-09-11T15:48:16.141Z,5.38
2022-09-11T15:50:45.884Z,4.75
2022-09-11T15:53:15.841Z,4.97
2022-09-11T15:55:45.862Z,5.10
2022-09-11T15:58:15.607Z,5.53
2022-09-11T16:00:48.204Z,5.80
2022-09-11T16:03:17.966Z,4.80
2022-09-11T16:05:47.787Z,4.85
2022-09-11T16:08:17.757Z,4.57
2022-09-11T16:10:47.520Z,5.05
2022-09-11T16:13:17.476Z,4.60
2022-09-11T16:15:47.574Z,4.40
2022-09-11T16:18:20.520Z,4.00
2022-09-11T16:20:59.644Z,3.78
2022-09-11T16:25:59.519Z,4.20
2022-09-11T16:28:29.321Z,4.35
2022-09-11T16:30:59.329Z,3.92
2022-09-11T16:33:29.655Z,4.13
2022-09-11T16:36:03.037Z,4.05
2022-09-11T16:38:32.965Z,5.10
2022-09-11T16:41:03.803Z,5.00
2022-09-11T16:43:33.608Z,4.75
2022-09-11T16:46:03.735Z,4.80
2022-09-11T16:48:33.885Z,4.00
2022-09-11T16:51:04.294Z,4.30
2022-09-11T16:53:34.816Z,5.03
2022-09-11T16:56:08.299Z,4.50
2022-09-11T16:58:38.401Z,4.78
2022-09-11T17:01:11.861Z,4.60
2022-09-11T17:03:41.819Z,4.28
2022-09-11T17:06:11.838Z,5.13
2022-09-11T17:08:41.623Z,4.63
2022-09-11T17:11:12.417Z,4.88
2022-09-11T17:13:42.785Z,4.60
2022-09-11T17:16:19.867Z,4.10
2022-09-11T17:18:54.813Z,4.22
2022-09-11T17:21:25.633Z,4.30
2022-09-11T17:23:55.997Z,4.50
2022-09-11T17:26:25.964Z,4.38
2022-09-11T17:28:56.794Z,3.88
2022-09-11T17:31:26.513Z,3.88
2022-09-11T17:33:57.949Z,4.03
2022-09-11T17:36:27.953Z,4.60
2022-09-11T17:39:00.784Z,4.50
2022-09-11T17:41:31.051Z,3.40
2022-09-11T17:44:00.775Z,3.92
2022-09-11T17:46:31.081Z,4.32
2022-09-11T17:49:01.485Z,4.22
2022-09-11T17:51:31.149Z,3.72
2022-09-11T17:54:01.104Z,3.65
2022-09-11T17:56:34.322Z,3.65
2022-09-11T17:59:04.466Z,3.25
2022-09-11T18:01:34.122Z,3.88
2022-09-11T18:04:04.008Z,4.03
2022-09-11T18:06:37.763Z,4.18
2022-09-11T18:09:16.577Z,4.00
2022-09-11T18:11:47.219Z,2.95
2022-09-11T18:14:17.210Z,4.55
2022-09-11T18:16:48.601Z,3.67
2022-09-11T18:19:19.242Z,3.53
2022-09-11T18:21:50.351Z,3.40
2022-09-11T18:24:22.133Z,3.17
2022-09-11T18:26:53.527Z,3.20
2022-09-11T18:29:24.853Z,2.80
2022-09-11T18:31:55.195Z,2.63
2022-09-11T18:34:29.105Z,2.15
2022-09-11T18:36:59.942Z,2.67
2022-09-11T18:39:29.992Z,2.40
2022-09-11T18:42:00.668Z,2.08
2022-09-11T18:44:30.519Z,2.00
2022-09-11T18:47:00.286Z,2.33
2022-09-11T18:49:30.518Z,2.80
2022-09-11T18:52:00.840Z,2.40
2022-09-11T18:54:32.937Z,2.67
2022-09-11T18:57:03.575Z,2.75
2022-09-11T18:59:33.344Z,2.75
2022-09-11T19:02:03.561Z,2.20
2022-09-11T19:04:33.376Z,2.20
2022-09-11T19:07:03.084Z,2.22
2022-09-11T19:09:33.089Z,2.83
2022-09-11T19:12:04.756Z,2.08
2022-09-11T19:14:34.707Z,2.13
2022-09-11T19:17:05.854Z,2.63
2022-09-11T19:19:35.452Z,2.42
2022-09-11T19:22:05.653Z,2.35
2022-09-11T19:24:36.066Z,1.50
2022-09-11T19:27:05.754Z,1.60
2022-09-11T19:29:35.519Z,1.65
2022-09-11T19:32:05.444Z,1.70
2022-09-11T19:34:38.706Z,1.60
2022-09-11T19:37:09.544Z,1.50
2022-09-11T19:39:39.484Z,1.80
2022-09-11T19:42:10.640Z,1.45
2022-09-11T19:44:40.950Z,1.30
2022-09-11T19:47:11.021Z,1.33
2022-09-11T19:49:40.767Z,1.10
2022-09-11T19:52:13.266Z,0.70
2022-09-11T19:54:43.121Z,0.90
2022-09-11T19:57:13.036Z,0.80
2022-09-11T19:59:42.681Z,0.90
2022-09-11T20:02:13.164Z,0.60
2022-09-11T20:04:42.941Z,0.60
2022-09-11T20:07:12.991Z,0.95
2022-09-11T20:09:44.452Z,0.70
2022-09-11T20:12:14.079Z,0.75
2022-09-11T20:14:43.789Z,0.73
2022-09-11T20:17:14.464Z,1.20
2022-09-11T20:19:46.320Z,0.90
2022-09-11T20:22:16.266Z,1.42
2022-09-11T20:24:46.100Z,0.85
2022-09-11T20:27:15.998Z,0.93
2022-09-11T20:29:45.706Z,1.48
2022-09-11T20:32:18.441Z,1.50
2022-09-11T20:34:49.146Z,2.50
2022-09-11T20:37:19.041Z,1.85
2022-09-11T20:39:48.770Z,1.55
2022-09-11T20:42:18.757Z,1.45
2022-09-11T20:44:50.369Z,1.83
2022-09-11T20:47:20.145Z,1.52
2022-09-11T20:49:49.867Z,2.10
2022-09-11T20:52:19.614Z,2.47
2022-09-11T20:54:50.671Z,2.53
2022-09-11T20:57:20.338Z,3.25
2022-09-11T20:59:51.468Z,2.42
2022-09-11T21:02:21.384Z,2.42
2022-09-11T21:04:51.225Z,2.67
2022-09-11T21:07:21.179Z,2.78
2022-09-11T21:09:51.164Z,3.30
2022-09-11T21:12:21.061Z,3.35
2022-09-11T21:14:50.671Z,2.65
2022-09-11T21:17:20.527Z,2.90
2022-09-11T21:19:53.178Z,2.83
2022-09-11T21:22:25.296Z,3.03
2022-09-11T21:24:55.852Z,3.33
2022-09-11T21:27:25.528Z,2.63
2022-09-11T21:29:56.816Z,2.75
2022-09-11T21:32:26.848Z,2.20
2022-09-11T21:34:56.493Z,2.05
2022-09-11T21:37:26.357Z,2.20
2022-09-11T21:39:56.131Z,2.20
2022-09-11T21:42:26.070Z,2.42
2022-09-11T21:44:55.646Z,2.35
2022-09-11T21:47:25.301Z,2.30
2022-09-11T21:49:54.956Z,2.60
2022-09-11T21:52:24.557Z,1.98
2022-09-11T21:54:56.107Z,2.05
2022-09-11T21:57:30.228Z,1.35
2022-09-11T22:00:00.123Z,0.90
2022-09-11T22:02:30.035Z,0.90
2022-09-11T22:04:59.738Z,0.70
2022-09-11T22:07:29.505Z,0.80
2022-09-11T22:09:59.344Z,0.60
2022-09-11T22:12:29.166Z,0.85
2022-09-11T22:14:59.093Z,0.73
2022-09-11T22:17:28.896Z,0.60
2022-09-11T22:19:58.576Z,0.47
2022-09-11T22:22:28.222Z,0.50
2022-09-11T22:24:58.086Z,0.70
2022-09-11T22:27:28.240Z,0.70
2022-09-11T22:29:57.950Z,0.70
2022-09-11T22:32:28.283Z,0.60
2022-09-11T22:35:02.288Z,0.55
2022-09-11T22:37:32.884Z,0.50
2022-09-11T22:40:13.374Z,0.50
2022-09-11T22:42:43.117Z,0.73
2022-09-11T22:45:13.263Z,0.65
2022-09-11T22:47:43.114Z,0.80
2022-09-11T22:50:12.892Z,0.70
2022-09-11T22:52:42.757Z,1.02
2022-09-11T22:55:12.607Z,0.90
2022-09-11T22:57:43.492Z,1.10
2022-09-11T23:00:14.346Z,1.15
2022-09-11T23:02:44.322Z,1.17
2022-09-11T23:05:32.317Z,0.75
2022-09-11T23:08:02.374Z,1.27
2022-09-11T23:10:32.048Z,0.93
2022-09-11T23:13:01.631Z,0.95
2022-09-11T23:15:31.503Z,0.85
2022-09-11T23:18:01.532Z,1.30
2022-09-11T23:20:34.266Z,1.30
2022-09-11T23:23:05.394Z,1.10
2022-09-11T23:25:35.552Z,1.20
2022-09-11T23:28:05.427Z,1.13
2022-09-11T23:30:35.020Z,1.48
2022-09-11T23:33:05.348Z,1.50
2022-09-11T23:35:35.070Z,2.00
2022-09-11T23:38:04.730Z,1.80
2022-09-11T23:40:34.324Z,1.58
2022-09-11T23:43:04.036Z,1.48
2022-09-11T23:45:33.948Z,2.03
2022-09-11T23:48:03.667Z,1.70
2022-09-11T23:50:33.522Z,2.03
2022-09-11T23:53:03.149Z,1.75
2022-09-11T23:55:33.255Z,1.55
2022-09-11T23:58:06.128Z,1.73
